Chifeng, China
Current Conditions -  °F | °C
As of 2:30 AM on Sunday 26 Oct 2014 (Local Time) from ZBAA Reporting Station
Moderate Fog Moderate Fog  
Wind Chill: 52°   Ceiling: Unl
Heat Index: 52°   Visibility: 0.5mi
Dew Point: 52°   Wind: 9mph
Humidity: 100%   Direction: 350°N
Pressure: 30"   Gusts: NA
Location:  42.27°N, 118.95°E
Report Text: ZBAA 251830Z 35004MPS 0800 R01/0900N R36R/1300NR36L/0650V1000DFG NSC 11/11 Q1016 BECMG TL1920 1500 BR
Loading
Personal Weather Stations






























Interactive Weather Map
Tropical Storm Tracking
New forecast layout! Learn more

10-Day Weather Forecast

Advertisements
Track Severe Weather on mobile